sensor_id;sensor_type;location;lat;lon;timestamp;temperature;humidity
74458;SHT31;62896;51.032;3.712;2023-07-08T00:00:13;22.5;54
74458;SHT31;62896;51.032;3.712;2023-07-08T00:03:25;22.4;54
74458;SHT31;62896;51.032;3.712;2023-07-08T00:06:45;22.4;54
74458;SHT31;62896;51.032;3.712;2023-07-08T00:10:13;22.4;54
74458;SHT31;62896;51.032;3.712;2023-07-08T00:13:25;22.1;55
74458;SHT31;62896;51.032;3.712;2023-07-08T00:16:45;22.1;55
74458;SHT31;62896;51.032;3.712;2023-07-08T00:20:13;22.1;55
74458;SHT31;62896;51.032;3.712;2023-07-08T00:23:25;21.9;55
74458;SHT31;62896;51.032;3.712;2023-07-08T00:26:45;21.9;55
74458;SHT31;62896;51.032;3.712;2023-07-08T00:30:21;21.9;55
74458;SHT31;62896;51.032;3.712;2023-07-08T00:33:25;21.8;56
74458;SHT31;62896;51.032;3.712;2023-07-08T00:36:45;21.8;56
74458;SHT31;62896;51.032;3.712;2023-07-08T00:40:11;21.8;56
74458;SHT31;62896;51.032;3.712;2023-07-08T00:43:30;21.6;56
74458;SHT31;62896;51.032;3.712;2023-07-08T00:46:48;21.6;56
74458;SHT31;62896;51.032;3.712;2023-07-08T00:50:07;21.6;56
74458;SHT31;62896;51.032;3.712;2023-07-08T00:53:26;21.4;57
74458;SHT31;62896;51.032;3.712;2023-07-08T00:56:46;21.4;57
74458;SHT31;62896;51.032;3.712;2023-07-08T01:00:06;21.4;57
74458;SHT31;62896;51.032;3.712;2023-07-08T01:03:25;21.3;57
74458;SHT31;62896;51.032;3.712;2023-07-08T01:06:45;21.3;57
74458;SHT31;62896;51.032;3.712;2023-07-08T01:10:06;21.3;57
74458;SHT31;62896;51.032;3.712;2023-07-08T01:13:25;21.1;58
74458;SHT31;62896;51.032;3.712;2023-07-08T01:16:45;21.1;58
74458;SHT31;62896;51.032;3.712;2023-07-08T01:20:05;21.1;58
74458;SHT31;62896;51.032;3.712;2023-07-08T01:23:25;21;58
74458;SHT31;62896;51.032;3.712;2023-07-08T01:26:45;21;58
74458;SHT31;62896;51.032;3.712;2023-07-08T01:30:06;21;58
74458;SHT31;62896;51.032;3.712;2023-07-08T01:33:25;21;58
74458;SHT31;62896;51.032;3.712;2023-07-08T01:36:46;21;58
74458;SHT31;62896;51.032;3.712;2023-07-08T01:40:37;21;58
74458;SHT31;62896;51.032;3.712;2023-07-08T01:43:25;20.8;58
74458;SHT31;62896;51.032;3.712;2023-07-08T01:46:45;20.8;58
74458;SHT31;62896;51.032;3.712;2023-07-08T01:50:05;20.8;58
74458;SHT31;62896;51.032;3.712;2023-07-08T01:53:28;20.6;59
74458;SHT31;62896;51.032;3.712;2023-07-08T01:56:45;20.6;59
74458;SHT31;62896;51.032;3.712;2023-07-08T02:00:05;20.6;59
74458;SHT31;62896;51.032;3.712;2023-07-08T02:03:25;20.5;59
74458;SHT31;62896;51.032;3.712;2023-07-08T02:06:50;20.5;59
74458;SHT31;62896;51.032;3.712;2023-07-08T02:10:05;20.5;59
74458;SHT31;62896;51.032;3.712;2023-07-08T02:13:25;20.4;59
74458;SHT31;62896;51.032;3.712;2023-07-08T02:16:45;20.4;59
74458;SHT31;62896;51.032;3.712;2023-07-08T02:20:05;20.4;59
74458;SHT31;62896;51.032;3.712;2023-07-08T02:23:25;20.3;59
74458;SHT31;62896;51.032;3.712;2023-07-08T02:26:45;20.3;59
74458;SHT31;62896;51.032;3.712;2023-07-08T02:30:05;20.3;59
74458;SHT31;62896;51.032;3.712;2023-07-08T02:33:25;20.3;59
74458;SHT31;62896;51.032;3.712;2023-07-08T02:36:45;20.3;59
74458;SHT31;62896;51.032;3.712;2023-07-08T02:40:05;20.3;59
74458;SHT31;62896;51.032;3.712;2023-07-08T02:43:25;20.2;59
74458;SHT31;62896;51.032;3.712;2023-07-08T02:46:45;20.2;59
74458;SHT31;62896;51.032;3.712;2023-07-08T02:50:07;20.2;59
74458;SHT31;62896;51.032;3.712;2023-07-08T02:53:25;20.1;59
74458;SHT31;62896;51.032;3.712;2023-07-08T02:56:45;20.1;59
74458;SHT31;62896;51.032;3.712;2023-07-08T03:00:05;20.1;59
74458;SHT31;62896;51.032;3.712;2023-07-08T03:03:25;20;59
74458;SHT31;62896;51.032;3.712;2023-07-08T03:06:45;20;59
74458;SHT31;62896;51.032;3.712;2023-07-08T03:10:05;20;59
74458;SHT31;62896;51.032;3.712;2023-07-08T03:13:25;20;59
74458;SHT31;62896;51.032;3.712;2023-07-08T03:16:45;20;59
74458;SHT31;62896;51.032;3.712;2023-07-08T03:20:05;20;59
74458;SHT31;62896;51.032;3.712;2023-07-08T03:23:25;19.8;60
74458;SHT31;62896;51.032;3.712;2023-07-08T03:26:45;19.8;60
74458;SHT31;62896;51.032;3.712;2023-07-08T03:30:05;19.8;60
74458;SHT31;62896;51.032;3.712;2023-07-08T03:33:25;19.7;60
74458;SHT31;62896;51.032;3.712;2023-07-08T03:36:46;19.7;60
74458;SHT31;62896;51.032;3.712;2023-07-08T03:40:07;19.7;60
74458;SHT31;62896;51.032;3.712;2023-07-08T03:43:25;19.5;61
74458;SHT31;62896;51.032;3.712;2023-07-08T03:46:46;19.5;61
74458;SHT31;62896;51.032;3.712;2023-07-08T03:50:05;19.5;61
74458;SHT31;62896;51.032;3.712;2023-07-08T03:53:25;19.5;61
74458;SHT31;62896;51.032;3.712;2023-07-08T03:56:45;19.5;61
74458;SHT31;62896;51.032;3.712;2023-07-08T04:00:05;19.5;61
74458;SHT31;62896;51.032;3.712;2023-07-08T04:03:25;19.5;61
74458;SHT31;62896;51.032;3.712;2023-07-08T04:06:45;19.5;61
74458;SHT31;62896;51.032;3.712;2023-07-08T04:10:05;19.5;61
74458;SHT31;62896;51.032;3.712;2023-07-08T04:13:25;19.6;61
74458;SHT31;62896;51.032;3.712;2023-07-08T04:16:46;19.6;61
74458;SHT31;62896;51.032;3.712;2023-07-08T04:20:05;19.6;61
74458;SHT31;62896;51.032;3.712;2023-07-08T04:23:25;19.6;61
74458;SHT31;62896;51.032;3.712;2023-07-08T04:26:45;19.6;61
74458;SHT31;62896;51.032;3.712;2023-07-08T04:30:05;19.6;61
74458;SHT31;62896;51.032;3.712;2023-07-08T04:33:25;19.6;61
74458;SHT31;62896;51.032;3.712;2023-07-08T04:36:45;19.6;61
74458;SHT31;62896;51.032;3.712;2023-07-08T04:40:07;19.6;61
74458;SHT31;62896;51.032;3.712;2023-07-08T04:43:25;19.6;61
74458;SHT31;62896;51.032;3.712;2023-07-08T04:46:46;19.6;61
74458;SHT31;62896;51.032;3.712;2023-07-08T04:50:05;19.6;61
74458;SHT31;62896;51.032;3.712;2023-07-08T04:53:25;19.7;61
74458;SHT31;62896;51.032;3.712;2023-07-08T04:56:45;19.7;61
74458;SHT31;62896;51.032;3.712;2023-07-08T05:00:06;19.7;61
74458;SHT31;62896;51.032;3.712;2023-07-08T05:03:25;19.8;61
74458;SHT31;62896;51.032;3.712;2023-07-08T05:06:45;19.8;61
74458;SHT31;62896;51.032;3.712;2023-07-08T05:10:05;19.8;61
74458;SHT31;62896;51.032;3.712;2023-07-08T05:13:25;19.9;61
74458;SHT31;62896;51.032;3.712;2023-07-08T05:16:45;19.9;61
74458;SHT31;62896;51.032;3.712;2023-07-08T05:20:06;19.9;61
74458;SHT31;62896;51.032;3.712;2023-07-08T05:23:25;20.2;60
74458;SHT31;62896;51.032;3.712;2023-07-08T05:26:45;20.2;60
74458;SHT31;62896;51.032;3.712;2023-07-08T05:30:06;20.2;60
74458;SHT31;62896;51.032;3.712;2023-07-08T05:33:27;20.3;60
74458;SHT31;62896;51.032;3.712;2023-07-08T05:36:45;20.3;60
74458;SHT31;62896;51.032;3.712;2023-07-08T05:40:06;20.3;60
74458;SHT31;62896;51.032;3.712;2023-07-08T05:43:25;21;58
74458;SHT31;62896;51.032;3.712;2023-07-08T05:46:45;21;58
74458;SHT31;62896;51.032;3.712;2023-07-08T05:50:06;21;58
74458;SHT31;62896;51.032;3.712;2023-07-08T05:53:25;21.3;58
74458;SHT31;62896;51.032;3.712;2023-07-08T05:56:45;21.3;58
74458;SHT31;62896;51.032;3.712;2023-07-08T06:00:05;21.3;58
74458;SHT31;62896;51.032;3.712;2023-07-08T06:03:25;21.5;58
74458;SHT31;62896;51.032;3.712;2023-07-08T06:06:45;21.5;58
74458;SHT31;62896;51.032;3.712;2023-07-08T06:10:05;21.5;58
74458;SHT31;62896;51.032;3.712;2023-07-08T06:13:25;21.8;57
74458;SHT31;62896;51.032;3.712;2023-07-08T06:16:45;21.8;57
74458;SHT31;62896;51.032;3.712;2023-07-08T06:20:05;21.8;57
74458;SHT31;62896;51.032;3.712;2023-07-08T06:23:25;22.3;56
74458;SHT31;62896;51.032;3.712;2023-07-08T06:26:45;22.3;56
74458;SHT31;62896;51.032;3.712;2023-07-08T06:30:05;22.3;56
74458;SHT31;62896;51.032;3.712;2023-07-08T06:33:25;22.6;56
74458;SHT31;62896;51.032;3.712;2023-07-08T06:36:45;22.6;56
74458;SHT31;62896;51.032;3.712;2023-07-08T06:40:06;22.6;56
74458;SHT31;62896;51.032;3.712;2023-07-08T06:43:25;22.9;55
74458;SHT31;62896;51.032;3.712;2023-07-08T06:46:45;22.9;55
74458;SHT31;62896;51.032;3.712;2023-07-08T06:50:06;22.9;55
74458;SHT31;62896;51.032;3.712;2023-07-08T06:53:25;23.2;54
74458;SHT31;62896;51.032;3.712;2023-07-08T06:56:45;23.2;54
74458;SHT31;62896;51.032;3.712;2023-07-08T07:00:05;23.2;54
74458;SHT31;62896;51.032;3.712;2023-07-08T07:03:25;23.6;54
74458;SHT31;62896;51.032;3.712;2023-07-08T07:06:45;23.6;54
74458;SHT31;62896;51.032;3.712;2023-07-08T07:10:05;23.6;54
74458;SHT31;62896;51.032;3.712;2023-07-08T07:13:25;24.1;54
74458;SHT31;62896;51.032;3.712;2023-07-08T07:16:45;24.1;54
74458;SHT31;62896;51.032;3.712;2023-07-08T07:20:05;24.1;54
74458;SHT31;62896;51.032;3.712;2023-07-08T07:23:25;24.4;53
74458;SHT31;62896;51.032;3.712;2023-07-08T07:26:45;24.4;53
74458;SHT31;62896;51.032;3.712;2023-07-08T07:30:06;24.4;53
74458;SHT31;62896;51.032;3.712;2023-07-08T07:33:25;25;52
74458;SHT31;62896;51.032;3.712;2023-07-08T07:36:45;25;52
74458;SHT31;62896;51.032;3.712;2023-07-08T07:40:06;25;52
74458;SHT31;62896;51.032;3.712;2023-07-08T07:43:25;25.6;51
74458;SHT31;62896;51.032;3.712;2023-07-08T07:46:45;25.6;51
74458;SHT31;62896;51.032;3.712;2023-07-08T07:50:06;25.6;51
74458;SHT31;62896;51.032;3.712;2023-07-08T07:53:25;25.8;50
74458;SHT31;62896;51.032;3.712;2023-07-08T07:56:45;25.8;50
74458;SHT31;62896;51.032;3.712;2023-07-08T08:00:05;25.8;50
74458;SHT31;62896;51.032;3.712;2023-07-08T08:03:25;26;51
74458;SHT31;62896;51.032;3.712;2023-07-08T08:06:45;26;51
74458;SHT31;62896;51.032;3.712;2023-07-08T08:10:05;26;51
74458;SHT31;62896;51.032;3.712;2023-07-08T08:13:25;26.4;50
74458;SHT31;62896;51.032;3.712;2023-07-08T08:16:45;26.4;50
74458;SHT31;62896;51.032;3.712;2023-07-08T08:20:06;26.4;50
74458;SHT31;62896;51.032;3.712;2023-07-08T08:23:25;26.8;49
74458;SHT31;62896;51.032;3.712;2023-07-08T08:26:45;26.8;49
74458;SHT31;62896;51.032;3.712;2023-07-08T08:30:06;26.8;49
74458;SHT31;62896;51.032;3.712;2023-07-08T08:33:25;27.1;48
74458;SHT31;62896;51.032;3.712;2023-07-08T08:36:45;27.1;48
74458;SHT31;62896;51.032;3.712;2023-07-08T08:40:06;27.1;48
74458;SHT31;62896;51.032;3.712;2023-07-08T08:43:28;27.7;48
74458;SHT31;62896;51.032;3.712;2023-07-08T08:46:48;27.7;48
74458;SHT31;62896;51.032;3.712;2023-07-08T08:50:10;27.7;48
74458;SHT31;62896;51.032;3.712;2023-07-08T08:53:25;27.7;48
74458;SHT31;62896;51.032;3.712;2023-07-08T08:56:48;27.7;48
74458;SHT31;62896;51.032;3.712;2023-07-08T09:00:07;27.7;48
74458;SHT31;62896;51.032;3.712;2023-07-08T09:03:32;28.1;47
74458;SHT31;62896;51.032;3.712;2023-07-08T09:06:45;28.1;47
74458;SHT31;62896;51.032;3.712;2023-07-08T09:10:08;28.1;47
74458;SHT31;62896;51.032;3.712;2023-07-08T09:13:26;28.4;46
74458;SHT31;62896;51.032;3.712;2023-07-08T09:16:48;28.4;46
74458;SHT31;62896;51.032;3.712;2023-07-08T09:20:06;28.4;46
74458;SHT31;62896;51.032;3.712;2023-07-08T09:23:26;28.9;43
74458;SHT31;62896;51.032;3.712;2023-07-08T09:26:45;28.9;43
74458;SHT31;62896;51.032;3.712;2023-07-08T09:30:07;28.9;43
74458;SHT31;62896;51.032;3.712;2023-07-08T09:33:25;29.5;42
74458;SHT31;62896;51.032;3.712;2023-07-08T09:36:46;29.5;42
74458;SHT31;62896;51.032;3.712;2023-07-08T09:40:14;29.5;42
74458;SHT31;62896;51.032;3.712;2023-07-08T09:43:26;29.9;41
74458;SHT31;62896;51.032;3.712;2023-07-08T09:46:45;29.9;41
74458;SHT31;62896;51.032;3.712;2023-07-08T09:50:17;29.9;41
74458;SHT31;62896;51.032;3.712;2023-07-08T09:53:25;30.4;40
74458;SHT31;62896;51.032;3.712;2023-07-08T09:56:49;30.4;40
74458;SHT31;62896;51.032;3.712;2023-07-08T10:00:07;30.4;40
74458;SHT31;62896;51.032;3.712;2023-07-08T10:03:26;30.7;39
74458;SHT31;62896;51.032;3.712;2023-07-08T10:06:45;30.7;39
74458;SHT31;62896;51.032;3.712;2023-07-08T10:10:06;30.7;39
74458;SHT31;62896;51.032;3.712;2023-07-08T10:13:26;31.2;38
74458;SHT31;62896;51.032;3.712;2023-07-08T10:16:45;31.2;38
74458;SHT31;62896;51.032;3.712;2023-07-08T10:20:07;31.2;38
74458;SHT31;62896;51.032;3.712;2023-07-08T10:23:27;31.5;37
74458;SHT31;62896;51.032;3.712;2023-07-08T10:26:46;31.5;37
74458;SHT31;62896;51.032;3.712;2023-07-08T10:30:13;31.5;37
74458;SHT31;62896;51.032;3.712;2023-07-08T10:33:32;31.7;36
74458;SHT31;62896;51.032;3.712;2023-07-08T10:36:48;31.7;36
74458;SHT31;62896;51.032;3.712;2023-07-08T10:40:11;31.7;36
74458;SHT31;62896;51.032;3.712;2023-07-08T10:43:32;32.1;33
74458;SHT31;62896;51.032;3.712;2023-07-08T10:46:48;32.1;33
74458;SHT31;62896;51.032;3.712;2023-07-08T10:50:11;32.1;33
74458;SHT31;62896;51.032;3.712;2023-07-08T10:53:30;32.3;35
74458;SHT31;62896;51.032;3.712;2023-07-08T10:56:47;32.3;35
74458;SHT31;62896;51.032;3.712;2023-07-08T11:00:07;32.3;35
74458;SHT31;62896;51.032;3.712;2023-07-08T11:03:31;32.7;35
74458;SHT31;62896;51.032;3.712;2023-07-08T11:06:47;32.7;35
74458;SHT31;62896;51.032;3.712;2023-07-08T11:10:07;32.7;35
74458;SHT31;62896;51.032;3.712;2023-07-08T11:13:28;32.9;34
74458;SHT31;62896;51.032;3.712;2023-07-08T11:16:46;32.9;34
74458;SHT31;62896;51.032;3.712;2023-07-08T11:20:12;32.9;34
74458;SHT31;62896;51.032;3.712;2023-07-08T11:23:31;32.9;34
74458;SHT31;62896;51.032;3.712;2023-07-08T11:26:46;32.9;34
74458;SHT31;62896;51.032;3.712;2023-07-08T11:30:06;32.9;34
74458;SHT31;62896;51.032;3.712;2023-07-08T11:33:25;33.4;33
74458;SHT31;62896;51.032;3.712;2023-07-08T11:36:46;33.4;33
74458;SHT31;62896;51.032;3.712;2023-07-08T11:40:06;33.4;33
74458;SHT31;62896;51.032;3.712;2023-07-08T11:43:26;33.9;33
74458;SHT31;62896;51.032;3.712;2023-07-08T11:46:53;33.9;33
74458;SHT31;62896;51.032;3.712;2023-07-08T11:50:08;33.9;33
74458;SHT31;62896;51.032;3.712;2023-07-08T11:53:34;33.7;33
74458;SHT31;62896;51.032;3.712;2023-07-08T11:56:48;33.7;33
74458;SHT31;62896;51.032;3.712;2023-07-08T12:00:12;33.7;33
74458;SHT31;62896;51.032;3.712;2023-07-08T12:03:29;33.7;33
74458;SHT31;62896;51.032;3.712;2023-07-08T12:06:46;33.7;33
74458;SHT31;62896;51.032;3.712;2023-07-08T12:10:08;33.7;33
74458;SHT31;62896;51.032;3.712;2023-07-08T12:13:25;33.6;34
74458;SHT31;62896;51.032;3.712;2023-07-08T12:16:45;33.6;34
74458;SHT31;62896;51.032;3.712;2023-07-08T12:20:06;33.6;34
74458;SHT31;62896;51.032;3.712;2023-07-08T12:23:26;33.7;34
74458;SHT31;62896;51.032;3.712;2023-07-08T12:26:45;33.7;34
74458;SHT31;62896;51.032;3.712;2023-07-08T12:30:07;33.7;34
74458;SHT31;62896;51.032;3.712;2023-07-08T12:33:26;33.4;35
74458;SHT31;62896;51.032;3.712;2023-07-08T12:36:45;33.4;35
74458;SHT31;62896;51.032;3.712;2023-07-08T12:40:08;33.4;35
74458;SHT31;62896;51.032;3.712;2023-07-08T12:43:26;33.2;36
74458;SHT31;62896;51.032;3.712;2023-07-08T12:46:46;33.2;36
74458;SHT31;62896;51.032;3.712;2023-07-08T12:50:07;33.2;36
74458;SHT31;62896;51.032;3.712;2023-07-08T12:53:25;33.9;35
74458;SHT31;62896;51.032;3.712;2023-07-08T12:56:45;33.9;35
74458;SHT31;62896;51.032;3.712;2023-07-08T13:00:06;33.9;35
74458;SHT31;62896;51.032;3.712;2023-07-08T13:03:26;34.5;34
74458;SHT31;62896;51.032;3.712;2023-07-08T13:06:45;34.5;34
74458;SHT31;62896;51.032;3.712;2023-07-08T13:10:06;34.5;34
74458;SHT31;62896;51.032;3.712;2023-07-08T13:13:26;34.5;35
74458;SHT31;62896;51.032;3.712;2023-07-08T13:16:45;34.5;35
74458;SHT31;62896;51.032;3.712;2023-07-08T13:20:07;34.5;35
74458;SHT31;62896;51.032;3.712;2023-07-08T13:23:25;34.8;35
74458;SHT31;62896;51.032;3.712;2023-07-08T13:26:46;34.8;35
74458;SHT31;62896;51.032;3.712;2023-07-08T13:30:13;34.8;35
74458;SHT31;62896;51.032;3.712;2023-07-08T13:33:28;35.2;34
74458;SHT31;62896;51.032;3.712;2023-07-08T13:36:47;35.2;34
74458;SHT31;62896;51.032;3.712;2023-07-08T13:40:07;35.2;34
74458;SHT31;62896;51.032;3.712;2023-07-08T13:43:27;34.9;35
74458;SHT31;62896;51.032;3.712;2023-07-08T13:46:50;34.9;35
74458;SHT31;62896;51.032;3.712;2023-07-08T13:50:07;34.9;35
74458;SHT31;62896;51.032;3.712;2023-07-08T13:53:27;34.9;36
74458;SHT31;62896;51.032;3.712;2023-07-08T13:56:46;34.9;36
74458;SHT31;62896;51.032;3.712;2023-07-08T14:00:06;34.9;36
74458;SHT31;62896;51.032;3.712;2023-07-08T14:03:25;34.9;37
74458;SHT31;62896;51.032;3.712;2023-07-08T14:06:45;34.9;37
74458;SHT31;62896;51.032;3.712;2023-07-08T14:10:08;34.9;37
74458;SHT31;62896;51.032;3.712;2023-07-08T14:13:25;34.8;38
74458;SHT31;62896;51.032;3.712;2023-07-08T14:16:46;34.8;38
74458;SHT31;62896;51.032;3.712;2023-07-08T14:20:08;34.8;38
74458;SHT31;62896;51.032;3.712;2023-07-08T14:23:25;35.8;37
74458;SHT31;62896;51.032;3.712;2023-07-08T14:26:46;35.8;37
74458;SHT31;62896;51.032;3.712;2023-07-08T14:30:08;35.8;37
74458;SHT31;62896;51.032;3.712;2023-07-08T14:33:25;36.6;36
74458;SHT31;62896;51.032;3.712;2023-07-08T14:36:45;36.6;36
74458;SHT31;62896;51.032;3.712;2023-07-08T14:40:11;36.6;36
74458;SHT31;62896;51.032;3.712;2023-07-08T14:43:27;36.9;36
74458;SHT31;62896;51.032;3.712;2023-07-08T14:46:45;36.9;36
74458;SHT31;62896;51.032;3.712;2023-07-08T14:50:10;36.9;36
74458;SHT31;62896;51.032;3.712;2023-07-08T14:53:25;36.8;36
74458;SHT31;62896;51.032;3.712;2023-07-08T14:56:46;36.8;36
74458;SHT31;62896;51.032;3.712;2023-07-08T15:00:06;36.8;36
74458;SHT31;62896;51.032;3.712;2023-07-08T15:03:26;36.9;36
74458;SHT31;62896;51.032;3.712;2023-07-08T15:06:46;36.9;36
74458;SHT31;62896;51.032;3.712;2023-07-08T15:10:06;36.9;36
74458;SHT31;62896;51.032;3.712;2023-07-08T15:13:25;37.4;36
74458;SHT31;62896;51.032;3.712;2023-07-08T15:16:46;37.4;36
74458;SHT31;62896;51.032;3.712;2023-07-08T15:20:07;37.4;36
74458;SHT31;62896;51.032;3.712;2023-07-08T15:23:25;36.9;37
74458;SHT31;62896;51.032;3.712;2023-07-08T15:26:46;36.9;37
74458;SHT31;62896;51.032;3.712;2023-07-08T15:30:10;36.9;37
74458;SHT31;62896;51.032;3.712;2023-07-08T15:33:26;36;38
74458;SHT31;62896;51.032;3.712;2023-07-08T15:36:46;36;38
74458;SHT31;62896;51.032;3.712;2023-07-08T15:40:06;36;38
74458;SHT31;62896;51.032;3.712;2023-07-08T15:43:26;36.1;39
74458;SHT31;62896;51.032;3.712;2023-07-08T15:46:46;36.1;39
74458;SHT31;62896;51.032;3.712;2023-07-08T15:50:09;36.1;39
74458;SHT31;62896;51.032;3.712;2023-07-08T15:53:25;37;37
74458;SHT31;62896;51.032;3.712;2023-07-08T15:56:46;37;37
74458;SHT31;62896;51.032;3.712;2023-07-08T16:00:06;37;37
74458;SHT31;62896;51.032;3.712;2023-07-08T16:03:26;37.6;36
74458;SHT31;62896;51.032;3.712;2023-07-08T16:06:46;37.6;36
74458;SHT31;62896;51.032;3.712;2023-07-08T16:10:06;37.6;36
74458;SHT31;62896;51.032;3.712;2023-07-08T16:13:26;37.2;36
74458;SHT31;62896;51.032;3.712;2023-07-08T16:16:46;37.2;36
74458;SHT31;62896;51.032;3.712;2023-07-08T16:20:09;37.2;36
74458;SHT31;62896;51.032;3.712;2023-07-08T16:23:26;35.5;38
74458;SHT31;62896;51.032;3.712;2023-07-08T16:26:46;35.5;38
74458;SHT31;62896;51.032;3.712;2023-07-08T16:30:07;35.5;38
74458;SHT31;62896;51.032;3.712;2023-07-08T16:33:26;34.8;39
74458;SHT31;62896;51.032;3.712;2023-07-08T16:36:46;34.8;39
74458;SHT31;62896;51.032;3.712;2023-07-08T16:40:08;34.8;39
74458;SHT31;62896;51.032;3.712;2023-07-08T16:43:27;34.1;39
74458;SHT31;62896;51.032;3.712;2023-07-08T16:46:46;34.1;39
74458;SHT31;62896;51.032;3.712;2023-07-08T16:50:06;34.1;39
74458;SHT31;62896;51.032;3.712;2023-07-08T16:53:26;33.7;40
74458;SHT31;62896;51.032;3.712;2023-07-08T16:56:46;33.7;40
74458;SHT31;62896;51.032;3.712;2023-07-08T17:00:06;33.7;40
74458;SHT31;62896;51.032;3.712;2023-07-08T17:03:26;33.3;41
74458;SHT31;62896;51.032;3.712;2023-07-08T17:06:46;33.3;41
74458;SHT31;62896;51.032;3.712;2023-07-08T17:10:08;33.3;41
74458;SHT31;62896;51.032;3.712;2023-07-08T17:13:26;33.1;42
74458;SHT31;62896;51.032;3.712;2023-07-08T17:16:46;33.1;42
74458;SHT31;62896;51.032;3.712;2023-07-08T17:20:13;33.1;42
74458;SHT31;62896;51.032;3.712;2023-07-08T17:23:26;32.8;43
74458;SHT31;62896;51.032;3.712;2023-07-08T17:26:46;32.8;43
74458;SHT31;62896;51.032;3.712;2023-07-08T17:30:06;32.8;43
74458;SHT31;62896;51.032;3.712;2023-07-08T17:33:26;32.7;43
74458;SHT31;62896;51.032;3.712;2023-07-08T17:36:46;32.7;43
74458;SHT31;62896;51.032;3.712;2023-07-08T17:40:11;32.7;43
74458;SHT31;62896;51.032;3.712;2023-07-08T17:43:26;32.7;42
74458;SHT31;62896;51.032;3.712;2023-07-08T17:46:46;32.7;42
74458;SHT31;62896;51.032;3.712;2023-07-08T17:50:14;32.7;42
74458;SHT31;62896;51.032;3.712;2023-07-08T17:53:26;32.3;43
74458;SHT31;62896;51.032;3.712;2023-07-08T17:56:46;32.3;43
74458;SHT31;62896;51.032;3.712;2023-07-08T18:00:09;32.3;43
74458;SHT31;62896;51.032;3.712;2023-07-08T18:03:26;32.2;44
74458;SHT31;62896;51.032;3.712;2023-07-08T18:06:46;32.2;44
74458;SHT31;62896;51.032;3.712;2023-07-08T18:10:06;32.2;44
74458;SHT31;62896;51.032;3.712;2023-07-08T18:13:26;31.5;45
74458;SHT31;62896;51.032;3.712;2023-07-08T18:16:46;31.5;45
74458;SHT31;62896;51.032;3.712;2023-07-08T18:20:08;31.5;45
74458;SHT31;62896;51.032;3.712;2023-07-08T18:23:27;31;45
74458;SHT31;62896;51.032;3.712;2023-07-08T18:26:46;31;45
74458;SHT31;62896;51.032;3.712;2023-07-08T18:30:06;31;45
74458;SHT31;62896;51.032;3.712;2023-07-08T18:33:26;30.7;45
74458;SHT31;62896;51.032;3.712;2023-07-08T18:36:46;30.7;45
74458;SHT31;62896;51.032;3.712;2023-07-08T18:40:07;30.7;45
74458;SHT31;62896;51.032;3.712;2023-07-08T18:43:26;30.4;45
74458;SHT31;62896;51.032;3.712;2023-07-08T18:46:46;30.4;45
74458;SHT31;62896;51.032;3.712;2023-07-08T18:50:07;30.4;45
74458;SHT31;62896;51.032;3.712;2023-07-08T18:53:26;30.4;45
74458;SHT31;62896;51.032;3.712;2023-07-08T18:56:46;30.4;45
74458;SHT31;62896;51.032;3.712;2023-07-08T19:00:07;30.4;45
74458;SHT31;62896;51.032;3.712;2023-07-08T19:03:26;30.1;45
74458;SHT31;62896;51.032;3.712;2023-07-08T19:06:46;30.1;45
74458;SHT31;62896;51.032;3.712;2023-07-08T19:10:06;30.1;45
74458;SHT31;62896;51.032;3.712;2023-07-08T19:13:26;29.8;46
74458;SHT31;62896;51.032;3.712;2023-07-08T19:16:46;29.8;46
74458;SHT31;62896;51.032;3.712;2023-07-08T19:20:07;29.8;46
74458;SHT31;62896;51.032;3.712;2023-07-08T19:23:26;29.5;47
74458;SHT31;62896;51.032;3.712;2023-07-08T19:26:46;29.5;47
74458;SHT31;62896;51.032;3.712;2023-07-08T19:30:07;29.5;47
74458;SHT31;62896;51.032;3.712;2023-07-08T19:33:26;29.4;47
74458;SHT31;62896;51.032;3.712;2023-07-08T19:36:46;29.4;47
74458;SHT31;62896;51.032;3.712;2023-07-08T19:40:08;29.4;47
74458;SHT31;62896;51.032;3.712;2023-07-08T19:43:26;29.2;49
74458;SHT31;62896;51.032;3.712;2023-07-08T19:46:46;29.2;49
74458;SHT31;62896;51.032;3.712;2023-07-08T19:50:07;29.2;49
74458;SHT31;62896;51.032;3.712;2023-07-08T19:53:26;29;49
74458;SHT31;62896;51.032;3.712;2023-07-08T19:56:46;29;49
74458;SHT31;62896;51.032;3.712;2023-07-08T20:00:10;29;49
74458;SHT31;62896;51.032;3.712;2023-07-08T20:03:26;28.7;49
74458;SHT31;62896;51.032;3.712;2023-07-08T20:06:46;28.7;49
74458;SHT31;62896;51.032;3.712;2023-07-08T20:10:07;28.7;49
74458;SHT31;62896;51.032;3.712;2023-07-08T20:13:26;28.6;51
74458;SHT31;62896;51.032;3.712;2023-07-08T20:16:46;28.6;51
74458;SHT31;62896;51.032;3.712;2023-07-08T20:20:22;28.6;51
74458;SHT31;62896;51.032;3.712;2023-07-08T20:23:26;28.2;53
74458;SHT31;62896;51.032;3.712;2023-07-08T20:26:46;28.2;53
74458;SHT31;62896;51.032;3.712;2023-07-08T20:30:12;28.2;53
74458;SHT31;62896;51.032;3.712;2023-07-08T20:33:26;28.1;54
74458;SHT31;62896;51.032;3.712;2023-07-08T20:36:46;28.1;54
74458;SHT31;62896;51.032;3.712;2023-07-08T20:40:12;28.1;54
74458;SHT31;62896;51.032;3.712;2023-07-08T20:43:26;28;54
74458;SHT31;62896;51.032;3.712;2023-07-08T20:46:46;28;54
74458;SHT31;62896;51.032;3.712;2023-07-08T20:53:26;27.8;55
74458;SHT31;62896;51.032;3.712;2023-07-08T20:56:46;27.8;55
74458;SHT31;62896;51.032;3.712;2023-07-08T21:00:09;27.8;55
74458;SHT31;62896;51.032;3.712;2023-07-08T21:03:26;27.6;56
74458;SHT31;62896;51.032;3.712;2023-07-08T21:06:46;27.6;56
74458;SHT31;62896;51.032;3.712;2023-07-08T21:10:06;27.6;56
74458;SHT31;62896;51.032;3.712;2023-07-08T21:13:26;27.4;57
74458;SHT31;62896;51.032;3.712;2023-07-08T21:16:46;27.4;57
74458;SHT31;62896;51.032;3.712;2023-07-08T21:20:13;27.4;57
74458;SHT31;62896;51.032;3.712;2023-07-08T21:23:26;27;59
74458;SHT31;62896;51.032;3.712;2023-07-08T21:26:46;27;59
74458;SHT31;62896;51.032;3.712;2023-07-08T21:30:12;27;59
74458;SHT31;62896;51.032;3.712;2023-07-08T21:33:26;26.7;61
74458;SHT31;62896;51.032;3.712;2023-07-08T21:36:46;26.7;61
74458;SHT31;62896;51.032;3.712;2023-07-08T21:40:08;26.7;61
74458;SHT31;62896;51.032;3.712;2023-07-08T21:43:26;26.3;62
74458;SHT31;62896;51.032;3.712;2023-07-08T21:46:46;26.3;62
74458;SHT31;62896;51.032;3.712;2023-07-08T21:50:06;26.3;62
74458;SHT31;62896;51.032;3.712;2023-07-08T21:53:27;26;63
74458;SHT31;62896;51.032;3.712;2023-07-08T21:56:46;26;63
74458;SHT31;62896;51.032;3.712;2023-07-08T22:00:06;26;63
74458;SHT31;62896;51.032;3.712;2023-07-08T22:03:26;25.8;64
74458;SHT31;62896;51.032;3.712;2023-07-08T22:06:46;25.8;64
74458;SHT31;62896;51.032;3.712;2023-07-08T22:10:07;25.8;64
74458;SHT31;62896;51.032;3.712;2023-07-08T22:13:27;25.6;65
74458;SHT31;62896;51.032;3.712;2023-07-08T22:16:46;25.6;65
74458;SHT31;62896;51.032;3.712;2023-07-08T22:20:06;25.6;65
74458;SHT31;62896;51.032;3.712;2023-07-08T22:23:27;25.6;66
74458;SHT31;62896;51.032;3.712;2023-07-08T22:26:46;25.6;66
74458;SHT31;62896;51.032;3.712;2023-07-08T22:30:06;25.6;66
74458;SHT31;62896;51.032;3.712;2023-07-08T22:33:26;25.5;66